SKG791 CYYB-CYOO
Flight info
| Callsign | SKG791 |
|---|---|
| Flight time | 0h 29m |
| Altitude | 27000 |
| Route | DUTUT |
| Aircraft | C25B/M-SDE2E3FGHRWXY/LB1 |
Departure
| Time | 2026-05-04 01:29 |
|---|---|
| Airport | North Bay Jack Garland Airport (CYYB) |
Arrival
| Time | 2026-05-04 01:58 |
|---|---|
| Airport | Oshawa Executive Airport (CYOO) |
| Time | Latitude | Longitude | Altitude | Speed | Heading |
|---|---|---|---|---|---|
| 2026-05-04 01:26 | 46.35833 | -79.42822 | 1176 ft | 0 kts | 274° |
| 2026-05-04 01:27 | 46.35861 | -79.42846 | 1177 ft | 11 kts | 354° |
| 2026-05-04 01:28 | 46.35984 | -79.42883 | 1177 ft | 22 kts | 349° |
| 2026-05-04 01:28 | 46.36099 | -79.42856 | 1177 ft | 17 kts | 15° |
| 2026-05-04 01:28 | 46.36206 | -79.42767 | 1178 ft | 30 kts | 61° |
| 2026-05-04 01:28 | 46.36480 | -79.41916 | 1185 ft | 159 kts | 64° |
| 2026-05-04 01:29 | 46.36741 | -79.40119 | 2241 ft | 202 kts | 110° |
| 2026-05-04 01:29 | 46.35813 | -79.38636 | 3934 ft | 212 kts | 160° |
| 2026-05-04 01:29 | 46.34383 | -79.38265 | 5039 ft | 211 kts | 192° |
| 2026-05-04 01:29 | 46.32921 | -79.38642 | 5784 ft | 214 kts | 198° |
| 2026-05-04 01:30 | 46.31458 | -79.39102 | 6629 ft | 217 kts | 200° |
| 2026-05-04 01:30 | 46.29968 | -79.39598 | 7416 ft | 221 kts | 200° |
| 2026-05-04 01:30 | 46.28465 | -79.40110 | 8240 ft | 224 kts | 200° |
| 2026-05-04 01:30 | 46.26957 | -79.40627 | 9025 ft | 227 kts | 200° |
| 2026-05-04 01:31 | 46.25408 | -79.41168 | 9793 ft | 231 kts | 200° |
| 2026-05-04 01:31 | 46.23836 | -79.41718 | 10521 ft | 233 kts | 200° |
| 2026-05-04 01:31 | 46.22247 | -79.42263 | 11244 ft | 236 kts | 200° |
| 2026-05-04 01:31 | 46.20637 | -79.42807 | 11965 ft | 239 kts | 200° |
| 2026-05-04 01:32 | 46.18930 | -79.42846 | 12622 ft | 256 kts | 177° |
| 2026-05-04 01:32 | 46.17166 | -79.42368 | 13337 ft | 259 kts | 178° |
| 2026-05-04 01:32 | 46.15378 | -79.41925 | 13987 ft | 262 kts | 178° |
| 2026-05-04 01:32 | 46.13569 | -79.41484 | 14631 ft | 264 kts | 178° |
| 2026-05-04 01:33 | 46.11747 | -79.41042 | 15280 ft | 267 kts | 178° |
| 2026-05-04 01:33 | 46.09905 | -79.40595 | 15922 ft | 269 kts | 179° |
| 2026-05-04 01:33 | 46.08069 | -79.40147 | 16549 ft | 272 kts | 178° |
| 2026-05-04 01:33 | 46.06194 | -79.39692 | 17192 ft | 275 kts | 179° |
| 2026-05-04 01:34 | 46.04298 | -79.39229 | 17827 ft | 278 kts | 179° |
| 2026-05-04 01:34 | 46.02382 | -79.38768 | 18409 ft | 281 kts | 179° |
| 2026-05-04 01:34 | 46.00447 | -79.38294 | 18949 ft | 284 kts | 179° |
| 2026-05-04 01:34 | 45.98490 | -79.37824 | 19492 ft | 287 kts | 179° |
| 2026-05-04 01:35 | 45.96508 | -79.37340 | 20028 ft | 290 kts | 179° |
| 2026-05-04 01:35 | 45.94507 | -79.36856 | 20555 ft | 293 kts | 179° |
| 2026-05-04 01:35 | 45.92481 | -79.36369 | 21082 ft | 296 kts | 179° |
| 2026-05-04 01:35 | 45.90435 | -79.35872 | 21614 ft | 300 kts | 179° |
| 2026-05-04 01:36 | 45.88392 | -79.35380 | 22129 ft | 303 kts | 180° |
| 2026-05-04 01:36 | 45.86304 | -79.34872 | 22661 ft | 306 kts | 179° |
| 2026-05-04 01:36 | 45.84192 | -79.34368 | 23191 ft | 309 kts | 180° |
| 2026-05-04 01:36 | 45.82055 | -79.33849 | 23646 ft | 313 kts | 179° |
| 2026-05-04 01:37 | 45.79903 | -79.33332 | 24081 ft | 316 kts | 179° |
| 2026-05-04 01:37 | 45.77727 | -79.32809 | 24518 ft | 318 kts | 179° |
| 2026-05-04 01:37 | 45.75535 | -79.32280 | 24958 ft | 321 kts | 179° |
| 2026-05-04 01:37 | 45.73324 | -79.31751 | 25397 ft | 324 kts | 179° |
| 2026-05-04 01:38 | 45.71097 | -79.31322 | 25818 ft | 322 kts | 185° |
| 2026-05-04 01:38 | 45.68855 | -79.31192 | 26265 ft | 323 kts | 187° |
| 2026-05-04 01:38 | 45.66593 | -79.31020 | 26704 ft | 328 kts | 184° |
| 2026-05-04 01:38 | 45.64271 | -79.30759 | 26801 ft | 343 kts | 183° |
| 2026-05-04 01:39 | 45.61839 | -79.30490 | 26811 ft | 358 kts | 183° |
| 2026-05-04 01:39 | 45.59344 | -79.30219 | 26817 ft | 370 kts | 183° |
| 2026-05-04 01:39 | 45.56740 | -79.29966 | 26816 ft | 381 kts | 183° |
| 2026-05-04 01:39 | 45.54063 | -79.29684 | 26816 ft | 390 kts | 182° |
| 2026-05-04 01:40 | 45.51333 | -79.29401 | 26822 ft | 397 kts | 182° |
| 2026-05-04 01:40 | 45.48556 | -79.29111 | 26823 ft | 403 kts | 182° |
| 2026-05-04 01:40 | 45.45745 | -79.28822 | 26821 ft | 407 kts | 182° |
| 2026-05-04 01:40 | 45.42898 | -79.28526 | 26821 ft | 410 kts | 182° |
| 2026-05-04 01:41 | 45.40041 | -79.28237 | 26825 ft | 413 kts | 182° |
| 2026-05-04 01:41 | 45.37168 | -79.27936 | 26824 ft | 415 kts | 182° |
| 2026-05-04 01:41 | 45.34276 | -79.27641 | 26822 ft | 417 kts | 182° |
| 2026-05-04 01:41 | 45.31378 | -79.27343 | 26822 ft | 418 kts | 182° |
| 2026-05-04 01:42 | 45.28473 | -79.27046 | 26820 ft | 419 kts | 182° |
| 2026-05-04 01:42 | 45.25554 | -79.26748 | 26821 ft | 420 kts | 181° |
| 2026-05-04 01:42 | 45.22633 | -79.26447 | 26818 ft | 420 kts | 182° |
| 2026-05-04 01:42 | 45.19751 | -79.26155 | 26814 ft | 421 kts | 181° |
| 2026-05-04 01:43 | 45.16827 | -79.25852 | 26810 ft | 422 kts | 181° |
| 2026-05-04 01:43 | 45.13901 | -79.25558 | 26808 ft | 422 kts | 181° |
| 2026-05-04 01:43 | 45.10971 | -79.25253 | 26804 ft | 422 kts | 181° |
| 2026-05-04 01:43 | 45.08032 | -79.24962 | 26800 ft | 423 kts | 181° |
| 2026-05-04 01:44 | 45.05075 | -79.24664 | 26374 ft | 432 kts | 181° |
| 2026-05-04 01:44 | 45.02027 | -79.24352 | 25683 ft | 445 kts | 181° |
| 2026-05-04 01:44 | 44.98950 | -79.24047 | 24982 ft | 439 kts | 181° |
| 2026-05-04 01:44 | 44.95937 | -79.23726 | 24292 ft | 430 kts | 181° |
| 2026-05-04 01:45 | 44.92965 | -79.23425 | 23624 ft | 423 kts | 181° |
| 2026-05-04 01:45 | 44.90050 | -79.23134 | 22917 ft | 417 kts | 181° |
| 2026-05-04 01:45 | 44.84363 | -79.22560 | 21629 ft | 403 kts | 181° |
| 2026-05-04 01:46 | 44.81569 | -79.22280 | 20996 ft | 406 kts | 181° |
| 2026-05-04 01:46 | 44.78726 | -79.21998 | 20355 ft | 412 kts | 181° |
| 2026-05-04 01:46 | 44.75850 | -79.21713 | 19705 ft | 415 kts | 181° |
| 2026-05-04 01:46 | 44.72996 | -79.21416 | 19062 ft | 417 kts | 181° |
| 2026-05-04 01:47 | 44.70101 | -79.21129 | 18406 ft | 418 kts | 181° |
| 2026-05-04 01:47 | 44.67198 | -79.20835 | 17716 ft | 417 kts | 181° |
| 2026-05-04 01:47 | 44.64338 | -79.20549 | 17068 ft | 403 kts | 181° |
| 2026-05-04 01:47 | 44.61604 | -79.20263 | 16601 ft | 386 kts | 181° |
| 2026-05-04 01:48 | 44.58964 | -79.20007 | 16018 ft | 375 kts | 182° |
| 2026-05-04 01:48 | 44.56385 | -79.19750 | 15447 ft | 367 kts | 182° |
| 2026-05-04 01:48 | 44.53861 | -79.19504 | 14885 ft | 361 kts | 182° |
| 2026-05-04 01:48 | 44.51375 | -79.19250 | 14327 ft | 356 kts | 182° |
| 2026-05-04 01:49 | 44.48920 | -79.19010 | 13774 ft | 352 kts | 182° |
| 2026-05-04 01:49 | 44.46487 | -79.18764 | 13194 ft | 348 kts | 182° |
| 2026-05-04 01:49 | 44.44090 | -79.18529 | 12654 ft | 344 kts | 182° |
| 2026-05-04 01:49 | 44.41747 | -79.18294 | 12130 ft | 340 kts | 182° |
| 2026-05-04 01:50 | 44.39394 | -79.18062 | 11600 ft | 338 kts | 182° |
| 2026-05-04 01:50 | 44.37054 | -79.17829 | 11070 ft | 335 kts | 182° |
| 2026-05-04 01:50 | 44.34768 | -79.17585 | 10558 ft | 324 kts | 184° |
| 2026-05-04 01:50 | 44.32548 | -79.17392 | 10068 ft | 317 kts | 183° |
| 2026-05-04 01:51 | 44.30367 | -79.17160 | 9564 ft | 311 kts | 183° |
| 2026-05-04 01:51 | 44.28224 | -79.16949 | 9069 ft | 306 kts | 183° |
| 2026-05-04 01:51 | 44.26120 | -79.16748 | 8595 ft | 301 kts | 184° |
| 2026-05-04 01:51 | 44.24044 | -79.16544 | 8129 ft | 297 kts | 184° |
| 2026-05-04 01:52 | 44.21993 | -79.16335 | 7662 ft | 294 kts | 184° |
| 2026-05-04 01:52 | 44.19966 | -79.16142 | 7204 ft | 291 kts | 184° |
| 2026-05-04 01:52 | 44.17952 | -79.15935 | 6747 ft | 289 kts | 184° |
| 2026-05-04 01:52 | 44.15954 | -79.15746 | 6297 ft | 287 kts | 185° |
| 2026-05-04 01:53 | 44.13969 | -79.15550 | 5827 ft | 285 kts | 185° |
| 2026-05-04 01:53 | 44.11996 | -79.15363 | 5381 ft | 283 kts | 185° |
| 2026-05-04 01:53 | 44.10033 | -79.15182 | 4936 ft | 282 kts | 184° |
| 2026-05-04 01:53 | 44.08078 | -79.14923 | 4488 ft | 282 kts | 182° |
| 2026-05-04 01:54 | 44.06144 | -79.14751 | 4044 ft | 276 kts | 187° |
| 2026-05-04 01:54 | 44.04235 | -79.14615 | 3619 ft | 271 kts | 181° |
| 2026-05-04 01:54 | 44.02438 | -79.13962 | 3196 ft | 262 kts | 170° |
| 2026-05-04 01:54 | 44.00839 | -79.12918 | 2997 ft | 249 kts | 156° |
| 2026-05-04 01:55 | 43.99485 | -79.11571 | 2931 ft | 232 kts | 149° |
| 2026-05-04 01:55 | 43.98380 | -79.09971 | 2787 ft | 226 kts | 138° |
| 2026-05-04 01:55 | 43.97493 | -79.08196 | 2639 ft | 222 kts | 127° |
| 2026-05-04 01:55 | 43.96840 | -79.06263 | 2501 ft | 220 kts | 117° |
| 2026-05-04 01:56 | 43.96313 | -79.04309 | 2367 ft | 213 kts | 119° |
| 2026-05-04 01:56 | 43.95765 | -79.02335 | 2224 ft | 224 kts | 118° |
| 2026-05-04 01:56 | 43.95199 | -79.00337 | 2095 ft | 218 kts | 118° |
| 2026-05-04 01:56 | 43.94657 | -78.98376 | 1857 ft | 216 kts | 117° |
| 2026-05-04 01:57 | 43.94117 | -78.96425 | 1543 ft | 216 kts | 117° |
| 2026-05-04 01:57 | 43.93582 | -78.94515 | 1195 ft | 206 kts | 114° |
| 2026-05-04 01:57 | 43.93108 | -78.92783 | 887 ft | 176 kts | 112° |
| 2026-05-04 01:57 | 43.92715 | -78.91343 | 671 ft | 144 kts | 111° |
| 2026-05-04 01:58 | 43.92386 | -78.90194 | 471 ft | 115 kts | 110° |
| 2026-05-04 01:58 | 43.92164 | -78.89372 | 455 ft | 61 kts | 111° |
| 2026-05-04 01:58 | 43.92063 | -78.89006 | 451 ft | 17 kts | 104° |
| 2026-05-04 01:58 | 43.92146 | -78.88997 | 452 ft | 22 kts | 296° |
| 2026-05-04 01:59 | 43.92230 | -78.89301 | 455 ft | 44 kts | 291° |
| 2026-05-04 01:59 | 43.92346 | -78.89724 | 457 ft | 46 kts | 293° |
| 2026-05-04 01:59 | 43.92456 | -78.90117 | 461 ft | 28 kts | 291° |
| 2026-05-04 01:59 | 43.92507 | -78.90239 | 460 ft | 20 kts | 324° |
| 2026-05-04 02:00 | 43.92555 | -78.90260 | 462 ft | 0 kts | 47° |
| 2026-05-04 02:04 | 43.92550 | -78.90225 | 462 ft | 7 kts | 154° |
| 2026-05-04 02:04 | 43.92490 | -78.90240 | 462 ft | 7 kts | 286° |
| 2026-05-04 02:04 | 43.92475 | -78.90353 | 462 ft | 16 kts | 211° |
| 2026-05-04 02:05 | 43.92386 | -78.90170 | 460 ft | 66 kts | 111° |
| 2026-05-04 02:05 | 43.92090 | -78.89140 | 512 ft | 155 kts | 112° |
| 2026-05-04 02:05 | 43.91621 | -78.87557 | 1167 ft | 197 kts | 116° |
| 2026-05-04 02:05 | 43.91061 | -78.85685 | 2064 ft | 219 kts | 120° |
| 2026-05-04 02:06 | 43.90440 | -78.83699 | 2699 ft | 227 kts | 123° |
| 2026-05-04 02:06 | 43.89327 | -78.82298 | 3336 ft | 216 kts | 172° |
| 2026-05-04 02:06 | 43.87962 | -78.82443 | 4072 ft | 194 kts | 218° |
| 2026-05-04 02:06 | 43.86944 | -78.83621 | 4880 ft | 190 kts | 233° |